sensor_id;sensor_type;location;lat;lon;timestamp;pressure;altitude;pressure_sealevel;temperature;humidity
50430;BME280;36359;41.556;-8.418;2024-02-26T00:01:42;61690.91;;;11.29;100.00
50430;BME280;36359;41.556;-8.418;2024-02-26T00:04:11;61688.22;;;11.31;100.00
50430;BME280;36359;41.556;-8.418;2024-02-26T00:06:38;61685.03;;;11.23;100.00
50430;BME280;36359;41.556;-8.418;2024-02-26T00:09:07;61707.47;;;11.45;100.00
50430;BME280;36359;41.556;-8.418;2024-02-26T00:11:33;61698.41;;;11.36;100.00
50430;BME280;36359;41.556;-8.418;2024-02-26T00:13:58;61698.94;;;11.34;100.00
50430;BME280;36359;41.556;-8.418;2024-02-26T00:16:24;61672.25;;;11.11;100.00
50430;BME280;36359;41.556;-8.418;2024-02-26T00:18:50;61686.13;;;11.24;100.00
50430;BME280;36359;41.556;-8.418;2024-02-26T00:21:16;61711.19;;;11.48;100.00
50430;BME280;36359;41.556;-8.418;2024-02-26T00:23:41;61684.00;;;11.22;100.00
50430;BME280;36359;41.556;-8.418;2024-02-26T00:26:07;61672.78;;;11.11;100.00
50430;BME280;36359;41.556;-8.418;2024-02-26T00:28:33;61687.72;;;11.26;100.00
50430;BME280;36359;41.556;-8.418;2024-02-26T00:30:59;61663.72;;;11.03;100.00
50430;BME280;36359;41.556;-8.418;2024-02-26T00:33:25;61650.94;;;10.90;100.00
50430;BME280;36359;41.556;-8.418;2024-02-26T00:35:51;61686.09;;;11.27;100.00
50430;BME280;36359;41.556;-8.418;2024-02-26T00:38:17;61658.41;;;10.98;100.00
50430;BME280;36359;41.556;-8.418;2024-02-26T00:40:42;61667.47;;;11.06;100.00
50430;BME280;36359;41.556;-8.418;2024-02-26T00:43:08;61667.47;;;11.06;100.00
50430;BME280;36359;41.556;-8.418;2024-02-26T00:45:34;61677.63;;;11.13;100.00
50430;BME280;36359;41.556;-8.418;2024-02-26T00:48:00;61666.97;;;11.03;100.00
50430;BME280;36359;41.556;-8.418;2024-02-26T00:50:31;61670.66;;;11.09;100.00
50430;BME280;36359;41.556;-8.418;2024-02-26T00:52:57;61676.56;;;11.12;100.00
50430;BME280;36359;41.556;-8.418;2024-02-26T00:55:22;61655.72;;;10.95;100.00
50430;BME280;36359;41.556;-8.418;2024-02-26T00:57:48;61652.50;;;10.97;100.00
50430;BME280;36359;41.556;-8.418;2024-02-26T01:00:14;61672.22;;;11.13;100.00
50430;BME280;36359;41.556;-8.418;2024-02-26T01:02:40;61677.06;;;11.16;100.00
50430;BME280;36359;41.556;-8.418;2024-02-26T01:05:08;61660.00;;;10.99;100.00
50430;BME280;36359;41.556;-8.418;2024-02-26T01:07:35;61659.47;;;10.96;100.00
50430;BME280;36359;41.556;-8.418;2024-02-26T01:10:02;61699.44;;;11.37;100.00
50430;BME280;36359;41.556;-8.418;2024-02-26T01:12:28;61684.00;;;11.22;100.00
50430;BME280;36359;41.556;-8.418;2024-02-26T01:14:54;61730.91;;;11.70;100.00
50430;BME280;36359;41.556;-8.418;2024-02-26T01:17:19;61702.66;;;11.40;100.00
50430;BME280;36359;41.556;-8.418;2024-02-26T01:19:45;61692.53;;;11.28;100.00
50430;BME280;36359;41.556;-8.418;2024-02-26T01:22:11;61665.31;;;11.04;100.00
50430;BME280;36359;41.556;-8.418;2024-02-26T01:24:37;61651.94;;;10.97;100.00
50430;BME280;36359;41.556;-8.418;2024-02-26T01:27:03;61650.41;;;10.90;100.00
50430;BME280;36359;41.556;-8.418;2024-02-26T01:29:28;61652.53;;;10.92;100.00
50430;BME280;36359;41.556;-8.418;2024-02-26T01:31:54;61649.34;;;10.89;100.00
50430;BME280;36359;41.556;-8.418;2024-02-26T01:34:20;61652.53;;;10.92;100.00
50430;BME280;36359;41.556;-8.418;2024-02-26T01:36:46;61667.41;;;11.11;100.00
50430;BME280;36359;41.556;-8.418;2024-02-26T01:39:12;61655.72;;;10.98;100.00
50430;BME280;36359;41.556;-8.418;2024-02-26T01:41:38;61649.34;;;10.89;100.00
50430;BME280;36359;41.556;-8.418;2024-02-26T01:44:04;61650.94;;;10.90;100.00
50430;BME280;36359;41.556;-8.418;2024-02-26T01:46:31;61674.41;;;11.10;100.00
50430;BME280;36359;41.556;-8.418;2024-02-26T01:48:59;61679.19;;;11.18;100.00
50430;BME280;36359;41.556;-8.418;2024-02-26T01:51:25;61658.94;;;10.98;100.00
50430;BME280;36359;41.556;-8.418;2024-02-26T01:53:51;61659.47;;;10.99;100.00
50430;BME280;36359;41.556;-8.418;2024-02-26T01:56:18;61657.88;;;10.97;100.00
50430;BME280;36359;41.556;-8.418;2024-02-26T01:58:45;61705.31;;;11.43;100.00
50430;BME280;36359;41.556;-8.418;2024-02-26T02:01:12;61692.00;;;11.30;100.00
50430;BME280;36359;41.556;-8.418;2024-02-26T02:03:38;61711.72;;;11.49;100.00
50430;BME280;36359;41.556;-8.418;2024-02-26T02:06:04;61705.34;;;11.40;100.00
50430;BME280;36359;41.556;-8.418;2024-02-26T02:08:30;61663.19;;;11.02;100.00
50430;BME280;36359;41.556;-8.418;2024-02-26T02:10:56;61646.66;;;10.89;100.00
50430;BME280;36359;41.556;-8.418;2024-02-26T02:13:22;61640.28;;;10.78;100.00
50430;BME280;36359;41.556;-8.418;2024-02-26T02:15:48;61636.56;;;10.77;100.00
50430;BME280;36359;41.556;-8.418;2024-02-26T02:18:13;61694.13;;;11.32;100.00
50430;BME280;36359;41.556;-8.418;2024-02-26T02:20:39;61668.00;;;11.07;100.00
50430;BME280;36359;41.556;-8.418;2024-02-26T02:23:05;61677.63;;;11.13;100.00
50430;BME280;36359;41.556;-8.418;2024-02-26T02:25:31;61646.13;;;10.86;100.00
50430;BME280;36359;41.556;-8.418;2024-02-26T02:27:56;61672.25;;;11.11;100.00
50430;BME280;36359;41.556;-8.418;2024-02-26T02:30:25;61675.97;;;11.14;100.00
50430;BME280;36359;41.556;-8.418;2024-02-26T02:32:52;61671.19;;;11.10;100.00
50430;BME280;36359;41.556;-8.418;2024-02-26T02:35:18;61677.06;;;11.16;100.00
50430;BME280;36359;41.556;-8.418;2024-02-26T02:37:44;61639.75;;;10.80;100.00
50430;BME280;36359;41.556;-8.418;2024-02-26T02:40:10;61679.19;;;11.18;100.00
50430;BME280;36359;41.556;-8.418;2024-02-26T02:42:36;61690.91;;;11.29;100.00
50430;BME280;36359;41.556;-8.418;2024-02-26T02:45:01;61649.34;;;10.89;100.00
50430;BME280;36359;41.556;-8.418;2024-02-26T02:47:27;61653.06;;;10.93;100.00
50430;BME280;36359;41.556;-8.418;2024-02-26T02:49:53;61644.00;;;10.84;100.00
50430;BME280;36359;41.556;-8.418;2024-02-26T02:52:18;61644.53;;;10.84;100.00
50430;BME280;36359;41.556;-8.418;2024-02-26T02:54:44;61651.97;;;10.94;100.00
50430;BME280;36359;41.556;-8.418;2024-02-26T02:57:12;61644.00;;;10.84;100.00
50430;BME280;36359;41.556;-8.418;2024-02-26T02:59:38;61644.00;;;10.84;100.00
50430;BME280;36359;41.556;-8.418;2024-02-26T03:02:04;61654.13;;;10.94;100.00
50430;BME280;36359;41.556;-8.418;2024-02-26T03:04:30;61635.44;;;10.81;100.00
50430;BME280;36359;41.556;-8.418;2024-02-26T03:06:56;61648.25;;;10.88;100.00
50430;BME280;36359;41.556;-8.418;2024-02-26T03:09:23;61702.66;;;11.40;100.00
50430;BME280;36359;41.556;-8.418;2024-02-26T03:11:49;61697.31;;;11.35;100.00
50430;BME280;36359;41.556;-8.418;2024-02-26T03:16:41;61698.41;;;11.36;100.00
50430;BME280;36359;41.556;-8.418;2024-02-26T03:19:07;61657.88;;;10.97;100.00
50430;BME280;36359;41.556;-8.418;2024-02-26T03:21:33;61666.91;;;11.06;100.00
50430;BME280;36359;41.556;-8.418;2024-02-26T03:23:58;61679.75;;;11.16;100.00
50430;BME280;36359;41.556;-8.418;2024-02-26T03:26:24;61663.19;;;11.02;100.00
50430;BME280;36359;41.556;-8.418;2024-02-26T03:28:50;61654.66;;;10.94;100.00
50430;BME280;36359;41.556;-8.418;2024-02-26T03:31:16;61648.81;;;10.86;100.00
50430;BME280;36359;41.556;-8.418;2024-02-26T03:33:41;61637.59;;;10.78;100.00
50430;BME280;36359;41.556;-8.418;2024-02-26T03:36:07;61628.56;;;10.66;100.00
50430;BME280;36359;41.556;-8.418;2024-02-26T03:38:33;61626.94;;;10.67;100.00
50430;BME280;36359;41.556;-8.418;2024-02-26T03:40:59;61608.28;;;10.50;100.00
50430;BME280;36359;41.556;-8.418;2024-02-26T03:43:24;61616.84;;;10.55;100.00
50430;BME280;36359;41.556;-8.418;2024-02-26T03:45:50;61633.81;;;10.79;100.00
50430;BME280;36359;41.556;-8.418;2024-02-26T03:48:16;61677.56;;;11.19;100.00
50430;BME280;36359;41.556;-8.418;2024-02-26T03:50:42;61682.41;;;11.21;100.00
50430;BME280;36359;41.556;-8.418;2024-02-26T03:53:07;61655.22;;;10.95;100.00
50430;BME280;36359;41.556;-8.418;2024-02-26T03:55:34;61657.88;;;10.97;100.00
50430;BME280;36359;41.556;-8.418;2024-02-26T03:58:00;61641.88;;;10.82;100.00
50430;BME280;36359;41.556;-8.418;2024-02-26T04:00:26;61645.56;;;10.88;100.00
50430;BME280;36359;41.556;-8.418;2024-02-26T04:02:54;61643.47;;;10.83;100.00
50430;BME280;36359;41.556;-8.418;2024-02-26T04:05:20;61655.72;;;10.95;100.00
50430;BME280;36359;41.556;-8.418;2024-02-26T04:07:45;61653.63;;;10.88;100.00
50430;BME280;36359;41.556;-8.418;2024-02-26T04:10:12;61653.59;;;10.93;100.00
50430;BME280;36359;41.556;-8.418;2024-02-26T04:12:43;61652.56;;;10.89;100.00
50430;BME280;36359;41.556;-8.418;2024-02-26T04:15:10;61609.91;;;10.51;100.00
50430;BME280;36359;41.556;-8.418;2024-02-26T04:17:36;61573.63;;;10.16;100.00
50430;BME280;36359;41.556;-8.418;2024-02-26T04:20:03;61557.66;;;10.01;100.00
50430;BME280;36359;41.556;-8.418;2024-02-26T04:22:30;61574.19;;;10.14;100.00
50430;BME280;36359;41.556;-8.418;2024-02-26T04:24:57;61547.56;;;9.91;100.00
50430;BME280;36359;41.556;-8.418;2024-02-26T04:27:23;61617.41;;;10.53;100.00
50430;BME280;36359;41.556;-8.418;2024-02-26T04:29:48;61602.44;;;10.44;100.00
50430;BME280;36359;41.556;-8.418;2024-02-26T04:32:14;61537.94;;;9.82;100.00
50430;BME280;36359;41.556;-8.418;2024-02-26T04:34:40;61539.03;;;9.81;100.00
50430;BME280;36359;41.556;-8.418;2024-02-26T04:37:07;61589.69;;;10.27;100.00
50430;BME280;36359;41.556;-8.418;2024-02-26T04:39:33;61569.91;;;10.15;100.00
50430;BME280;36359;41.556;-8.418;2024-02-26T04:41:58;61542.75;;;9.87;100.00
50430;BME280;36359;41.556;-8.418;2024-02-26T04:44:24;61527.81;;;9.75;100.00
50430;BME280;36359;41.556;-8.418;2024-02-26T04:46:50;61532.63;;;9.77;100.00
50430;BME280;36359;41.556;-8.418;2024-02-26T04:49:16;61550.19;;;9.94;100.00
50430;BME280;36359;41.556;-8.418;2024-02-26T04:51:42;61534.22;;;9.78;100.00
50430;BME280;36359;41.556;-8.418;2024-02-26T04:54:07;61512.41;;;9.55;100.00
50430;BME280;36359;41.556;-8.418;2024-02-26T04:56:33;61520.91;;;9.66;100.00
50430;BME280;36359;41.556;-8.418;2024-02-26T04:58:59;61558.72;;;10.02;100.00
50430;BME280;36359;41.556;-8.418;2024-02-26T05:01:25;61556.59;;;10.00;100.00
50430;BME280;36359;41.556;-8.418;2024-02-26T05:03:50;61561.41;;;10.02;100.00
50430;BME280;36359;41.556;-8.418;2024-02-26T05:06:16;61545.97;;;9.87;100.00
50430;BME280;36359;41.556;-8.418;2024-02-26T05:08:42;61528.38;;;9.70;100.00
50430;BME280;36359;41.556;-8.418;2024-02-26T05:11:09;61517.72;;;9.63;100.00
50430;BME280;36359;41.556;-8.418;2024-02-26T05:13:35;61527.84;;;9.72;100.00
50430;BME280;36359;41.556;-8.418;2024-02-26T05:16:00;61513.44;;;9.59;100.00
50430;BME280;36359;41.556;-8.418;2024-02-26T05:18:27;61576.28;;;10.21;100.00
50430;BME280;36359;41.556;-8.418;2024-02-26T05:20:53;61558.22;;;9.99;100.00
50430;BME280;36359;41.556;-8.418;2024-02-26T05:23:18;61500.69;;;9.46;100.00
50430;BME280;36359;41.556;-8.418;2024-02-26T05:25:44;61490.59;;;9.34;100.00
50430;BME280;36359;41.556;-8.418;2024-02-26T05:28:12;61508.16;;;9.53;100.00
50430;BME280;36359;41.556;-8.418;2024-02-26T05:30:38;61495.34;;;9.44;100.00
50430;BME280;36359;41.556;-8.418;2024-02-26T05:33:05;61498.00;;;9.44;100.00
50430;BME280;36359;41.556;-8.418;2024-02-26T05:35:31;61523.06;;;9.68;100.00
50430;BME280;36359;41.556;-8.418;2024-02-26T05:37:57;61508.66;;;9.54;100.00
50430;BME280;36359;41.556;-8.418;2024-02-26T05:40:22;61499.09;;;9.45;100.00
50430;BME280;36359;41.556;-8.418;2024-02-26T05:42:48;61556.06;;;9.99;100.00
50430;BME280;36359;41.556;-8.418;2024-02-26T05:45:14;61499.09;;;9.45;100.00
50430;BME280;36359;41.556;-8.418;2024-02-26T05:47:40;61531.56;;;9.73;100.00
50430;BME280;36359;41.556;-8.418;2024-02-26T05:50:10;61575.78;;;10.18;100.00
50430;BME280;36359;41.556;-8.418;2024-02-26T05:52:37;61576.31;;;10.19;100.00
50430;BME280;36359;41.556;-8.418;2024-02-26T05:55:04;61607.78;;;10.44;100.00
50430;BME280;36359;41.556;-8.418;2024-02-26T05:57:34;61539.03;;;9.81;100.00
50430;BME280;36359;41.556;-8.418;2024-02-26T06:00:00;61536.34;;;9.83;100.00
50430;BME280;36359;41.556;-8.418;2024-02-26T06:02:36;61481.53;;;9.28;100.00
50430;BME280;36359;41.556;-8.418;2024-02-26T06:05:02;61488.97;;;9.35;100.00
50430;BME280;36359;41.556;-8.418;2024-02-26T06:07:28;61501.16;;;9.52;100.00
50430;BME280;36359;41.556;-8.418;2024-02-26T06:09:54;61479.97;;;9.21;100.00
50430;BME280;36359;41.556;-8.418;2024-02-26T06:12:20;61483.16;;;9.24;100.00
50430;BME280;36359;41.556;-8.418;2024-02-26T06:14:45;61466.09;;;9.13;100.00
50430;BME280;36359;41.556;-8.418;2024-02-26T06:17:11;61526.22;;;9.73;100.00
50430;BME280;36359;41.556;-8.418;2024-02-26T06:19:37;61569.38;;;10.12;100.00
50430;BME280;36359;41.556;-8.418;2024-02-26T06:22:02;61526.81;;;9.66;100.00
50430;BME280;36359;41.556;-8.418;2024-02-26T06:24:28;61566.69;;;10.12;100.00
50430;BME280;36359;41.556;-8.418;2024-02-26T06:26:54;61567.75;;;10.13;100.00
50430;BME280;36359;41.556;-8.418;2024-02-26T06:29:19;61612.56;;;10.54;100.00
50430;BME280;36359;41.556;-8.418;2024-02-26T06:31:45;61616.78;;;10.63;100.00
50430;BME280;36359;41.556;-8.418;2024-02-26T06:34:11;61610.97;;;10.50;100.00
50430;BME280;36359;41.556;-8.418;2024-02-26T06:36:37;61623.22;;;10.61;100.00
50430;BME280;36359;41.556;-8.418;2024-02-26T06:39:02;61552.34;;;9.96;100.00
50430;BME280;36359;41.556;-8.418;2024-02-26T06:41:28;61532.09;;;9.76;100.00
50430;BME280;36359;41.556;-8.418;2024-02-26T06:43:55;61542.75;;;9.87;100.00
50430;BME280;36359;41.556;-8.418;2024-02-26T06:46:24;61508.13;;;9.56;100.00
50430;BME280;36359;41.556;-8.418;2024-02-26T06:48:51;61600.31;;;10.42;100.00
50430;BME280;36359;41.556;-8.418;2024-02-26T06:51:17;61471.41;;;9.18;100.00
50430;BME280;36359;41.556;-8.418;2024-02-26T06:53:43;61508.66;;;9.54;100.00
50430;BME280;36359;41.556;-8.418;2024-02-26T06:56:09;61532.13;;;9.74;100.00
50430;BME280;36359;41.556;-8.418;2024-02-26T06:58:34;61480.97;;;9.30;100.00
50430;BME280;36359;41.556;-8.418;2024-02-26T07:01:00;61473.00;;;9.20;100.00
50430;BME280;36359;41.556;-8.418;2024-02-26T07:03:26;61483.63;;;9.32;100.00
50430;BME280;36359;41.556;-8.418;2024-02-26T07:05:52;61473.00;;;9.17;100.00
50430;BME280;36359;41.556;-8.418;2024-02-26T07:08:18;61479.97;;;9.21;100.00
50430;BME280;36359;41.556;-8.418;2024-02-26T07:10:44;61542.22;;;9.86;100.00
50430;BME280;36359;41.556;-8.418;2024-02-26T07:13:09;61565.69;;;10.06;100.00
50430;BME280;36359;41.556;-8.418;2024-02-26T07:15:35;61531.56;;;9.73;100.00
50430;BME280;36359;41.556;-8.418;2024-02-26T07:18:01;61513.50;;;9.56;100.00
50430;BME280;36359;41.556;-8.418;2024-02-26T07:20:30;61534.78;;;9.76;100.00
50430;BME280;36359;41.556;-8.418;2024-02-26T07:22:56;61539.59;;;9.78;100.00
50430;BME280;36359;41.556;-8.418;2024-02-26T07:25:22;61541.72;;;9.83;100.00
50430;BME280;36359;41.556;-8.418;2024-02-26T07:27:52;61531.56;;;9.73;100.00
50430;BME280;36359;41.556;-8.418;2024-02-26T07:30:18;61476.19;;;9.23;100.00
50430;BME280;36359;41.556;-8.418;2024-02-26T07:32:44;61528.91;;;9.73;100.00
50430;BME280;36359;41.556;-8.418;2024-02-26T07:35:10;61491.66;;;9.35;100.00
50430;BME280;36359;41.556;-8.418;2024-02-26T07:37:35;61493.75;;;9.40;100.00
50430;BME280;36359;41.556;-8.418;2024-02-26T07:40:01;61479.91;;;9.29;100.00
50430;BME280;36359;41.556;-8.418;2024-02-26T07:42:27;61508.16;;;9.51;100.00
50430;BME280;36359;41.556;-8.418;2024-02-26T07:44:53;61460.25;;;9.05;100.00
50430;BME280;36359;41.556;-8.418;2024-02-26T07:47:19;61481.00;;;9.25;100.00
50430;BME280;36359;41.556;-8.418;2024-02-26T07:49:45;61500.16;;;9.46;100.00
50430;BME280;36359;41.556;-8.418;2024-02-26T07:52:11;61440.56;;;8.86;100.00
50430;BME280;36359;41.556;-8.418;2024-02-26T07:54:36;61443.75;;;8.92;100.00
50430;BME280;36359;41.556;-8.418;2024-02-26T07:57:02;61427.22;;;8.76;100.00
50430;BME280;36359;41.556;-8.418;2024-02-26T07:59:31;61476.72;;;9.23;100.00
50430;BME280;36359;41.556;-8.418;2024-02-26T08:01:57;61600.31;;;10.42;100.00
50430;BME280;36359;41.556;-8.418;2024-02-26T08:04:23;61524.13;;;9.66;100.00
50430;BME280;36359;41.556;-8.418;2024-02-26T08:06:49;61496.38;;;9.47;100.00
50430;BME280;36359;41.556;-8.418;2024-02-26T08:09:15;61507.06;;;9.52;100.00
50430;BME280;36359;41.556;-8.418;2024-02-26T08:11:41;61502.28;;;9.48;100.00
50430;BME280;36359;41.556;-8.418;2024-02-26T08:14:08;61532.66;;;9.74;100.00
50430;BME280;36359;41.556;-8.418;2024-02-26T08:16:35;61548.06;;;9.92;100.00
50430;BME280;36359;41.556;-8.418;2024-02-26T08:19:01;61529.41;;;9.76;100.00
50430;BME280;36359;41.556;-8.418;2024-02-26T08:21:37;61518.25;;;9.63;100.00
50430;BME280;36359;41.556;-8.418;2024-02-26T08:24:04;61546.47;;;9.90;100.00
50430;BME280;36359;41.556;-8.418;2024-02-26T08:26:30;61585.91;;;10.26;100.00
50430;BME280;36359;41.556;-8.418;2024-02-26T08:28:56;61567.78;;;10.11;100.00
50430;BME280;36359;41.556;-8.418;2024-02-26T08:31:23;61668.00;;;11.07;100.00
50430;BME280;36359;41.556;-8.418;2024-02-26T08:33:49;61683.47;;;11.22;100.00
50430;BME280;36359;41.556;-8.418;2024-02-26T08:36:15;61634.41;;;10.75;100.00
50430;BME280;36359;41.556;-8.418;2024-02-26T08:38:41;61614.16;;;10.55;100.00
50430;BME280;36359;41.556;-8.418;2024-02-26T08:41:07;61645.63;;;10.83;100.00
50430;BME280;36359;41.556;-8.418;2024-02-26T08:43:34;61547.00;;;9.91;100.00
50430;BME280;36359;41.556;-8.418;2024-02-26T08:45:59;61553.38;;;9.97;100.00
50430;BME280;36359;41.556;-8.418;2024-02-26T08:48:25;61517.19;;;9.62;100.00
50430;BME280;36359;41.556;-8.418;2024-02-26T08:50:51;61544.91;;;9.86;100.00
50430;BME280;36359;41.556;-8.418;2024-02-26T08:53:16;61647.19;;;10.87;100.00
50430;BME280;36359;41.556;-8.418;2024-02-26T08:55:42;61648.25;;;10.88;100.00
50430;BME280;36359;41.556;-8.418;2024-02-26T08:58:08;61564.06;;;10.07;100.00
50430;BME280;36359;41.556;-8.418;2024-02-26T09:00:33;61527.84;;;9.72;100.00
50430;BME280;36359;41.556;-8.418;2024-02-26T09:02:59;61522.50;;;9.67;100.00
50430;BME280;36359;41.556;-8.418;2024-02-26T09:05:25;61515.09;;;9.55;100.00
50430;BME280;36359;41.556;-8.418;2024-02-26T09:07:51;61520.38;;;9.65;100.00
50430;BME280;36359;41.556;-8.418;2024-02-26T09:10:17;61557.69;;;9.98;100.00
50430;BME280;36359;41.556;-8.418;2024-02-26T09:12:43;61600.31;;;10.42;100.00
50430;BME280;36359;41.556;-8.418;2024-02-26T09:15:09;61589.63;;;10.32;100.00
50430;BME280;36359;41.556;-8.418;2024-02-26T09:17:35;61651.97;;;10.94;100.00
50430;BME280;36359;41.556;-8.418;2024-02-26T09:20:02;61684.00;;;11.22;100.00
50430;BME280;36359;41.556;-8.418;2024-02-26T09:22:28;61690.91;;;11.29;100.00
50430;BME280;36359;41.556;-8.418;2024-02-26T09:24:54;61706.94;;;11.44;100.00
50430;BME280;36359;41.556;-8.418;2024-02-26T09:27:20;61633.88;;;10.74;100.00
50430;BME280;36359;41.556;-8.418;2024-02-26T09:29:46;61581.63;;;10.24;100.00
50430;BME280;36359;41.556;-8.418;2024-02-26T09:32:12;61676.50;;;11.18;100.00
50430;BME280;36359;41.556;-8.418;2024-02-26T09:34:40;61588.06;;;10.30;100.00
50430;BME280;36359;41.556;-8.418;2024-02-26T09:37:06;61583.25;;;10.23;100.00
50430;BME280;36359;41.556;-8.418;2024-02-26T09:39:32;61569.38;;;10.12;100.00
50430;BME280;36359;41.556;-8.418;2024-02-26T09:42:04;61588.56;;;10.31;100.00
50430;BME280;36359;41.556;-8.418;2024-02-26T09:44:31;61592.31;;;10.34;100.00
50430;BME280;36359;41.556;-8.418;2024-02-26T09:47:02;61673.34;;;11.09;100.00
50430;BME280;36359;41.556;-8.418;2024-02-26T09:49:28;61647.19;;;10.87;100.00
50430;BME280;36359;41.556;-8.418;2024-02-26T09:51:54;61662.66;;;11.02;100.00
50430;BME280;36359;41.556;-8.418;2024-02-26T09:54:24;61692.53;;;11.30;100.00
50430;BME280;36359;41.556;-8.418;2024-02-26T09:56:53;61690.88;;;11.34;100.00
50430;BME280;36359;41.556;-8.418;2024-02-26T09:59:22;61685.03;;;11.23;100.00
50430;BME280;36359;41.556;-8.418;2024-02-26T10:01:49;61693.03;;;11.33;100.00
50430;BME280;36359;41.556;-8.418;2024-02-26T10:04:16;61733.06;;;11.69;100.00
50430;BME280;36359;41.556;-8.418;2024-02-26T10:06:42;61724.53;;;11.58;100.00
50430;BME280;36359;41.556;-8.418;2024-02-26T10:09:10;61739.44;;;11.78;98.70
50430;BME280;36359;41.556;-8.418;2024-02-26T10:11:36;61715.44;;;11.52;99.22
50430;BME280;36359;41.556;-8.418;2024-02-26T10:14:03;61706.94;;;11.44;99.08
50430;BME280;36359;41.556;-8.418;2024-02-26T10:16:32;61767.19;;;12.07;100.00
50430;BME280;36359;41.556;-8.418;2024-02-26T10:19:04;61720.25;;;11.57;100.00
50430;BME280;36359;41.556;-8.418;2024-02-26T10:21:40;61720.81;;;11.55;100.00
50430;BME280;36359;41.556;-8.418;2024-02-26T10:24:14;61736.25;;;11.75;100.00
50430;BME280;36359;41.556;-8.418;2024-02-26T10:26:46;61721.31;;;11.58;100.00
50430;BME280;36359;41.556;-8.418;2024-02-26T10:29:16;61746.91;;;11.85;100.00
50430;BME280;36359;41.556;-8.418;2024-02-26T10:31:42;61749.09;;;11.82;100.00
50430;BME280;36359;41.556;-8.418;2024-02-26T10:34:08;61748.53;;;11.87;100.00
50430;BME280;36359;41.556;-8.418;2024-02-26T10:36:37;61735.19;;;11.71;100.00
50430;BME280;36359;41.556;-8.418;2024-02-26T10:39:06;61774.66;;;12.12;100.00
50430;BME280;36359;41.556;-8.418;2024-02-26T10:41:35;61727.19;;;11.64;96.64
50430;BME280;36359;41.556;-8.418;2024-02-26T10:44:01;61729.31;;;11.66;100.00
50430;BME280;36359;41.556;-8.418;2024-02-26T10:46:27;61724.53;;;11.58;97.90
50430;BME280;36359;41.556;-8.418;2024-02-26T10:48:53;61714.91;;;11.52;100.00
50430;BME280;36359;41.556;-8.418;2024-02-26T10:51:29;61701.56;;;11.42;97.63
50430;BME280;36359;41.556;-8.418;2024-02-26T10:53:59;61708.53;;;11.46;98.09
50430;BME280;36359;41.556;-8.418;2024-02-26T10:56:33;61710.63;;;11.50;100.00
50430;BME280;36359;41.556;-8.418;2024-02-26T10:59:00;61702.66;;;11.40;96.41
50430;BME280;36359;41.556;-8.418;2024-02-26T11:01:27;61712.25;;;11.49;99.00
50430;BME280;36359;41.556;-8.418;2024-02-26T11:03:55;61705.31;;;11.43;98.08
50430;BME280;36359;41.556;-8.418;2024-02-26T11:11:59;61748.53;;;11.84;96.67
50430;BME280;36359;41.556;-8.418;2024-02-26T11:14:26;61745.84;;;11.84;92.93
50430;BME280;36359;41.556;-8.418;2024-02-26T11:16:55;61720.78;;;11.57;96.61
50430;BME280;36359;41.556;-8.418;2024-02-26T11:19:22;61732.00;;;11.68;93.14
50430;BME280;36359;41.556;-8.418;2024-02-26T11:21:50;61759.28;;;11.89;95.54
50430;BME280;36359;41.556;-8.418;2024-02-26T11:24:19;61766.16;;;12.01;93.37
50430;BME280;36359;41.556;-8.418;2024-02-26T11:26:54;61756.56;;;11.92;92.32
50430;BME280;36359;41.556;-8.418;2024-02-26T11:29:47;61746.38;;;11.82;93.37
50430;BME280;36359;41.556;-8.418;2024-02-26T11:32:21;61741.03;;;11.79;95.76
50430;BME280;36359;41.556;-8.418;2024-02-26T11:34:47;61731.97;;;11.71;96.76
50430;BME280;36359;41.556;-8.418;2024-02-26T11:37:15;61706.88;;;11.47;98.73
50430;BME280;36359;41.556;-8.418;2024-02-26T11:39:42;61703.72;;;11.41;98.97
50430;BME280;36359;41.556;-8.418;2024-02-26T11:42:10;61703.19;;;11.38;97.31
50430;BME280;36359;41.556;-8.418;2024-02-26T11:44:39;61681.81;;;11.23;100.00
50430;BME280;36359;41.556;-8.418;2024-02-26T11:49:37;61727.75;;;11.62;100.00
50430;BME280;36359;41.556;-8.418;2024-02-26T11:52:07;61728.78;;;11.68;99.05
50430;BME280;36359;41.556;-8.418;2024-02-26T11:59:55;61790.22;;;12.21;92.71
50430;BME280;36359;41.556;-8.418;2024-02-26T12:02:41;61801.34;;;12.37;91.67
50430;BME280;36359;41.556;-8.418;2024-02-26T12:05:20;61791.25;;;12.25;91.77
50430;BME280;36359;41.556;-8.418;2024-02-26T12:08:05;61776.28;;;12.11;90.75
50430;BME280;36359;41.556;-8.418;2024-02-26T12:10:38;61819.53;;;12.52;92.75
50430;BME280;36359;41.556;-8.418;2024-02-26T12:15:41;61844.63;;;12.76;88.46
50430;BME280;36359;41.556;-8.418;2024-02-26T12:18:08;61818.44;;;12.56;89.39
50430;BME280;36359;41.556;-8.418;2024-02-26T12:20:39;61815.22;;;12.53;86.67
50430;BME280;36359;41.556;-8.418;2024-02-26T12:23:05;61804.56;;;12.40;86.41
50430;BME280;36359;41.556;-8.418;2024-02-26T12:25:32;61786.91;;;12.26;87.04
50430;BME280;36359;41.556;-8.418;2024-02-26T12:27:59;61808.34;;;12.41;87.24
50430;BME280;36359;41.556;-8.418;2024-02-26T12:30:25;61832.91;;;12.65;83.48
50430;BME280;36359;41.556;-8.418;2024-02-26T12:33:00;61815.25;;;12.50;86.16
50430;BME280;36359;41.556;-8.418;2024-02-26T12:35:28;61841.94;;;12.76;84.51
50430;BME280;36359;41.556;-8.418;2024-02-26T12:37:54;61861.72;;;12.92;82.22
50430;BME280;36359;41.556;-8.418;2024-02-26T12:40:21;61867.06;;;12.98;82.95
50430;BME280;36359;41.556;-8.418;2024-02-26T12:42:47;61874.53;;;13.05;80.40
50430;BME280;36359;41.556;-8.418;2024-02-26T12:45:14;61885.75;;;13.18;83.47
50430;BME280;36359;41.556;-8.418;2024-02-26T12:47:42;61868.09;;;13.01;81.55
50430;BME280;36359;41.556;-8.418;2024-02-26T12:50:09;61871.31;;;13.04;77.46
50430;BME280;36359;41.556;-8.418;2024-02-26T12:52:41;61895.38;;;13.27;81.02
50430;BME280;36359;41.556;-8.418;2024-02-26T12:55:15;61905.53;;;13.37;77.37
50430;BME280;36359;41.556;-8.418;2024-02-26T12:57:42;61915.69;;;13.44;80.07
50430;BME280;36359;41.556;-8.418;2024-02-26T13:00:13;61916.22;;;13.47;78.95
50430;BME280;36359;41.556;-8.418;2024-02-26T13:02:41;61893.22;;;13.25;76.91